createdAt,value
2019-03-20T00:01:02.795Z,8.23
2019-03-20T00:02:16.014Z,8.33
2019-03-20T00:03:29.269Z,8.45
2019-03-20T00:04:49.644Z,7.70
2019-03-20T00:05:57.457Z,8.45
2019-03-20T00:07:10.686Z,8.03
2019-03-20T00:08:23.910Z,7.83
2019-03-20T00:09:37.133Z,8.23
2019-03-20T00:10:50.453Z,9.23
2019-03-20T00:12:03.677Z,7.53
2019-03-20T00:13:16.901Z,7.70
2019-03-20T00:14:30.142Z,7.85
2019-03-20T00:15:43.375Z,7.47
2019-03-20T00:16:56.597Z,8.15
2019-03-20T00:18:11.059Z,8.50
2019-03-20T00:19:24.287Z,9.03
2019-03-20T00:20:37.519Z,8.80
2019-03-20T00:21:50.750Z,7.90
2019-03-20T00:23:03.987Z,7.95
2019-03-20T00:24:17.201Z,8.48
2019-03-20T00:25:30.438Z,8.18
2019-03-20T00:26:43.689Z,8.15
2019-03-20T00:27:57.643Z,8.45
2019-03-20T00:29:10.874Z,7.97
2019-03-20T00:30:24.127Z,7.83
2019-03-20T00:31:37.412Z,8.75
2019-03-20T00:32:50.643Z,9.33
2019-03-20T00:34:03.861Z,9.15
2019-03-20T00:35:17.164Z,8.75
2019-03-20T00:36:30.401Z,9.93
2019-03-20T00:37:43.645Z,8.63
2019-03-20T00:38:56.930Z,8.75
2019-03-20T00:40:12.957Z,8.58
2019-03-20T00:41:26.178Z,8.50
2019-03-20T00:42:39.403Z,8.95
2019-03-20T00:43:52.633Z,8.50
2019-03-20T00:45:08.594Z,7.80
2019-03-20T00:46:21.830Z,8.45
2019-03-20T00:47:35.050Z,9.25
2019-03-20T00:48:48.281Z,9.33
2019-03-20T00:50:01.508Z,8.78
2019-03-20T00:51:14.742Z,8.60
2019-03-20T00:52:27.997Z,7.97
2019-03-20T00:53:41.234Z,8.40
2019-03-20T00:54:54.453Z,8.83
2019-03-20T00:56:07.689Z,8.90
2019-03-20T00:57:22.174Z,9.13
2019-03-20T00:58:35.408Z,8.58
2019-03-20T00:59:48.629Z,9.38
2019-03-20T01:01:01.862Z,8.50
2019-03-20T01:02:15.107Z,8.45
2019-03-20T01:03:28.334Z,7.67
2019-03-20T01:04:41.560Z,9.08
2019-03-20T01:05:54.777Z,8.20
2019-03-20T01:07:10.118Z,8.40
2019-03-20T01:08:22.962Z,8.58
2019-03-20T01:09:36.185Z,9.48
2019-03-20T01:10:49.414Z,8.85
2019-03-20T01:12:02.653Z,9.05
2019-03-20T01:13:15.880Z,9.38
2019-03-20T01:14:29.106Z,7.87
2019-03-20T01:15:42.406Z,8.75
2019-03-20T01:16:55.649Z,8.28
2019-03-20T01:18:08.894Z,8.00
2019-03-20T01:19:22.126Z,7.17
2019-03-20T01:20:35.812Z,8.45
2019-03-20T01:21:49.043Z,8.03
2019-03-20T01:23:02.267Z,8.43
2019-03-20T01:24:15.497Z,8.75
2019-03-20T01:25:28.719Z,8.35
2019-03-20T01:26:41.954Z,8.95
2019-03-20T01:27:55.187Z,8.53
2019-03-20T01:29:08.406Z,8.20
2019-03-20T01:30:29.549Z,9.15
2019-03-20T01:31:42.785Z,8.88
2019-03-20T01:32:56.019Z,8.15
2019-03-20T01:34:09.242Z,8.75
2019-03-20T01:35:24.201Z,9.58
2019-03-20T01:36:37.586Z,7.97
2019-03-20T01:37:50.808Z,8.55
2019-03-20T01:39:05.278Z,7.90
2019-03-20T01:40:18.501Z,7.90
2019-03-20T01:41:38.052Z,8.55
2019-03-20T01:42:46.675Z,8.45
2019-03-20T01:43:59.911Z,7.65
2019-03-20T01:45:13.217Z,8.35
2019-03-20T01:46:26.534Z,8.38
2019-03-20T01:47:39.775Z,7.25
2019-03-20T01:48:53.001Z,8.30
2019-03-20T01:50:06.702Z,7.17
2019-03-20T01:51:20.975Z,7.53
2019-03-20T01:52:34.199Z,7.10
2019-03-20T01:53:47.414Z,6.55
2019-03-20T01:55:00.637Z,7.20
2019-03-20T01:56:14.106Z,6.97
2019-03-20T01:57:27.338Z,7.40
2019-03-20T01:58:40.558Z,7.55
2019-03-20T01:59:53.786Z,7.37
2019-03-20T02:01:07.006Z,6.97
2019-03-20T02:02:20.242Z,6.97
2019-03-20T02:03:33.474Z,7.30
2019-03-20T02:04:46.697Z,6.78
2019-03-20T02:05:59.918Z,7.50
2019-03-20T02:07:13.202Z,7.53
2019-03-20T02:08:26.435Z,7.42
2019-03-20T02:09:39.654Z,7.70
2019-03-20T02:10:52.885Z,7.80
2019-03-20T02:12:06.119Z,7.10
2019-03-20T02:13:19.346Z,7.33
2019-03-20T02:14:32.574Z,7.60
2019-03-20T02:15:45.810Z,6.90
2019-03-20T02:16:59.042Z,6.78
2019-03-20T02:18:12.282Z,7.58
2019-03-20T02:19:28.216Z,6.83
2019-03-20T02:20:41.436Z,7.22
2019-03-20T02:21:54.670Z,7.90
2019-03-20T02:23:07.917Z,7.17
2019-03-20T02:24:21.147Z,7.33
2019-03-20T02:25:34.375Z,8.18
2019-03-20T02:26:47.611Z,7.10
2019-03-20T02:28:00.847Z,7.55
2019-03-20T02:29:14.069Z,8.18
2019-03-20T02:30:27.334Z,6.58
2019-03-20T02:31:40.598Z,6.78
2019-03-20T02:32:53.839Z,8.08
2019-03-20T02:34:07.061Z,6.90
2019-03-20T02:35:20.288Z,7.58
2019-03-20T02:36:33.767Z,7.47
2019-03-20T02:37:48.010Z,7.53
2019-03-20T02:39:01.234Z,7.37
2019-03-20T02:40:15.017Z,7.12
2019-03-20T02:41:28.242Z,7.35
2019-03-20T02:42:41.486Z,7.97
2019-03-20T02:43:54.706Z,7.58
2019-03-20T02:45:14.646Z,7.17
2019-03-20T02:46:27.896Z,7.45
2019-03-20T02:47:41.119Z,6.75
2019-03-20T02:48:54.348Z,7.03
2019-03-20T02:50:12.085Z,7.40
2019-03-20T02:51:25.394Z,7.65
2019-03-20T02:52:39.081Z,7.28
2019-03-20T02:53:52.307Z,7.20
2019-03-20T02:55:08.335Z,8.48
2019-03-20T02:56:21.558Z,7.40
2019-03-20T02:57:35.365Z,7.37
2019-03-20T02:58:48.583Z,6.87
2019-03-20T03:00:01.808Z,6.90
2019-03-20T03:01:15.038Z,6.45
2019-03-20T03:02:28.257Z,6.45
2019-03-20T03:03:41.502Z,6.08
2019-03-20T03:04:54.872Z,5.97
2019-03-20T03:06:08.096Z,6.20
2019-03-20T03:07:21.331Z,6.85
2019-03-20T03:08:34.570Z,6.55
2019-03-20T03:09:47.839Z,7.03
2019-03-20T03:11:01.065Z,6.30
2019-03-20T03:12:14.278Z,5.87
2019-03-20T03:13:27.516Z,5.92
2019-03-20T03:14:40.744Z,6.12
2019-03-20T03:15:53.970Z,6.58
2019-03-20T03:17:07.251Z,6.65
2019-03-20T03:18:20.559Z,6.05
2019-03-20T03:19:33.793Z,6.10
2019-03-20T03:20:47.019Z,6.75
2019-03-20T03:22:00.243Z,6.58
2019-03-20T03:23:13.493Z,6.58
2019-03-20T03:24:26.721Z,6.22
2019-03-20T03:25:39.935Z,6.60
2019-03-20T03:26:53.157Z,6.20
2019-03-20T03:28:06.391Z,6.62
2019-03-20T03:29:19.622Z,6.80
2019-03-20T03:30:32.847Z,5.83
2019-03-20T03:31:46.143Z,6.45
2019-03-20T03:32:59.386Z,6.22
2019-03-20T03:34:12.720Z,5.97
2019-03-20T03:35:25.997Z,6.67
2019-03-20T03:36:39.227Z,6.00
2019-03-20T03:37:52.474Z,6.85
2019-03-20T03:39:06.839Z,5.83
2019-03-20T03:40:20.429Z,6.00
2019-03-20T03:41:33.694Z,6.22
2019-03-20T03:42:47.000Z,5.97
2019-03-20T03:44:00.230Z,6.12
2019-03-20T03:45:16.738Z,6.37
2019-03-20T03:46:29.965Z,6.55
2019-03-20T03:47:43.203Z,6.35
2019-03-20T03:48:56.494Z,6.90
2019-03-20T03:50:10.162Z,6.50
2019-03-20T03:51:23.450Z,6.40
2019-03-20T03:52:36.681Z,6.55
2019-03-20T03:53:49.910Z,6.17
2019-03-20T03:55:03.380Z,6.15
2019-03-20T03:56:16.611Z,6.80
2019-03-20T03:57:31.464Z,7.05
2019-03-20T03:58:44.703Z,6.45
2019-03-20T03:59:57.933Z,6.85
2019-03-20T04:01:11.154Z,6.67
2019-03-20T04:02:24.374Z,6.83
2019-03-20T04:03:37.605Z,6.67
2019-03-20T04:04:50.853Z,6.22
2019-03-20T04:06:04.083Z,6.03
2019-03-20T04:07:17.306Z,6.45
2019-03-20T04:08:30.529Z,6.53
2019-03-20T04:09:43.774Z,6.50
2019-03-20T04:10:56.986Z,6.22
2019-03-20T04:12:10.216Z,6.65
2019-03-20T04:13:23.444Z,6.20
2019-03-20T04:14:36.682Z,6.90
2019-03-20T04:15:49.917Z,7.50
2019-03-20T04:17:05.904Z,7.35
2019-03-20T04:18:19.135Z,7.30
2019-03-20T04:19:32.616Z,6.28
2019-03-20T04:20:45.844Z,7.20
2019-03-20T04:21:59.058Z,6.92
2019-03-20T04:23:12.305Z,6.65
2019-03-20T04:24:25.532Z,5.75
2019-03-20T04:25:38.921Z,6.92
2019-03-20T04:26:52.142Z,6.50
2019-03-20T04:28:05.364Z,6.15
2019-03-20T04:29:18.597Z,6.12
2019-03-20T04:30:33.462Z,5.92
2019-03-20T04:31:46.684Z,6.45
2019-03-20T04:32:59.915Z,6.50
2019-03-20T04:34:13.146Z,6.35
2019-03-20T04:35:26.373Z,6.60
2019-03-20T04:36:47.611Z,6.00
2019-03-20T04:37:54.541Z,6.67
2019-03-20T04:39:07.781Z,6.50
2019-03-20T04:40:21.010Z,5.83
2019-03-20T04:41:34.237Z,6.97
2019-03-20T04:42:47.722Z,6.97
2019-03-20T04:44:00.940Z,6.37
2019-03-20T04:45:14.713Z,6.10
2019-03-20T04:46:27.968Z,6.53
2019-03-20T04:47:41.498Z,6.40
2019-03-20T04:48:54.747Z,5.85
2019-03-20T04:50:11.596Z,5.60
2019-03-20T04:51:25.054Z,5.90
2019-03-20T04:52:38.293Z,6.58
2019-03-20T04:53:51.527Z,6.28
2019-03-20T04:55:05.794Z,6.72
2019-03-20T04:56:19.066Z,6.00
2019-03-20T04:57:32.293Z,6.40
2019-03-20T04:58:45.532Z,6.05
2019-03-20T04:59:58.757Z,6.72
2019-03-20T05:01:11.998Z,6.25
2019-03-20T05:02:25.230Z,6.40
2019-03-20T05:03:38.459Z,6.35
2019-03-20T05:04:51.691Z,6.33
2019-03-20T05:06:04.918Z,7.08
2019-03-20T05:07:18.153Z,6.45
2019-03-20T05:08:31.378Z,5.87
2019-03-20T05:09:44.607Z,5.87
2019-03-20T05:10:58.824Z,6.55
2019-03-20T05:12:12.054Z,6.60
2019-03-20T05:13:25.297Z,5.72
2019-03-20T05:14:38.516Z,6.47
2019-03-20T05:15:51.736Z,6.25
2019-03-20T05:17:06.607Z,6.47
2019-03-20T05:18:19.873Z,6.65
2019-03-20T05:19:37.660Z,6.97
2019-03-20T05:20:52.814Z,6.65
2019-03-20T05:22:10.282Z,6.65
2019-03-20T05:23:26.905Z,6.30
2019-03-20T05:24:40.134Z,6.42
2019-03-20T05:25:54.941Z,6.75
2019-03-20T05:27:08.266Z,7.47
2019-03-20T05:28:21.961Z,7.12
2019-03-20T05:29:35.181Z,8.05
2019-03-20T05:30:48.426Z,6.53
2019-03-20T05:32:01.672Z,7.00
2019-03-20T05:33:14.905Z,6.25
2019-03-20T05:34:28.127Z,6.67
2019-03-20T05:35:41.630Z,6.55
2019-03-20T05:36:57.610Z,6.83
2019-03-20T05:38:10.860Z,6.80
2019-03-20T05:39:24.087Z,6.80
2019-03-20T05:40:37.310Z,6.00
2019-03-20T05:41:50.543Z,7.53
2019-03-20T05:43:03.765Z,6.85
2019-03-20T05:44:17.016Z,6.55
2019-03-20T05:45:30.239Z,6.42
2019-03-20T05:46:43.466Z,7.45
2019-03-20T05:47:57.415Z,7.53
2019-03-20T05:49:10.642Z,7.83
2019-03-20T05:50:23.899Z,6.75
2019-03-20T05:51:37.120Z,7.45
2019-03-20T05:52:50.345Z,7.45
2019-03-20T05:54:04.134Z,6.95
2019-03-20T05:55:17.443Z,7.50
2019-03-20T05:56:30.678Z,7.20
2019-03-20T05:57:43.898Z,7.05
2019-03-20T05:58:57.127Z,6.92
2019-03-20T06:00:21.352Z,7.55
2019-03-20T06:01:34.590Z,7.25
2019-03-20T06:02:47.821Z,7.15
2019-03-20T06:04:01.053Z,7.33
2019-03-20T06:05:14.269Z,7.80
2019-03-20T06:06:27.500Z,7.50
2019-03-20T06:07:40.747Z,7.53
2019-03-20T06:08:53.962Z,6.47
2019-03-20T06:10:10.234Z,7.30
2019-03-20T06:11:23.463Z,6.70
2019-03-20T06:12:36.694Z,7.45
2019-03-20T06:13:49.934Z,6.90
2019-03-20T06:15:03.227Z,6.58
2019-03-20T06:16:16.447Z,5.97
2019-03-20T06:17:29.682Z,8.35
2019-03-20T06:18:42.897Z,7.30
2019-03-20T06:19:56.134Z,7.08
2019-03-20T06:21:09.366Z,7.15
2019-03-20T06:22:22.704Z,6.47
2019-03-20T06:23:36.003Z,7.87
2019-03-20T06:24:49.246Z,7.47
2019-03-20T06:26:02.490Z,7.35
2019-03-20T06:27:15.709Z,7.50
2019-03-20T06:28:28.942Z,7.53
2019-03-20T06:29:42.174Z,7.35
2019-03-20T06:30:55.399Z,7.83
2019-03-20T06:32:08.649Z,7.92
2019-03-20T06:33:21.878Z,7.85
2019-03-20T06:34:35.104Z,7.55
2019-03-20T06:35:48.325Z,7.55
2019-03-20T06:37:01.555Z,8.00
2019-03-20T06:38:14.793Z,7.25
2019-03-20T06:39:28.019Z,7.60
2019-03-20T06:40:41.259Z,7.72
2019-03-20T06:41:54.486Z,7.17
2019-03-20T06:43:07.709Z,7.83
2019-03-20T06:44:21.533Z,7.17
2019-03-20T06:45:34.749Z,7.97
2019-03-20T06:46:47.980Z,7.90
2019-03-20T06:48:01.206Z,7.72
2019-03-20T06:49:14.439Z,8.08
2019-03-20T06:50:27.674Z,7.35
2019-03-20T06:51:41.893Z,7.90
2019-03-20T06:52:55.126Z,7.40
2019-03-20T06:54:08.358Z,7.60
2019-03-20T06:55:21.609Z,7.85
2019-03-20T06:56:34.855Z,7.55
2019-03-20T06:57:48.080Z,8.83
2019-03-20T06:59:23.749Z,8.90
2019-03-20T07:00:54.491Z,8.38
2019-03-20T07:02:08.049Z,9.17
2019-03-20T07:03:24.535Z,8.35
2019-03-20T07:05:06.463Z,9.78
2019-03-20T07:07:44.055Z,8.23
2019-03-20T07:09:11.494Z,7.67
2019-03-20T07:10:48.880Z,7.85
2019-03-20T07:12:02.109Z,8.25
2019-03-20T07:13:15.348Z,9.10
2019-03-20T07:14:28.576Z,9.03
2019-03-20T07:15:41.800Z,8.68
2019-03-20T07:16:55.030Z,10.58
2019-03-20T07:18:08.257Z,8.83
2019-03-20T07:19:21.566Z,9.38
2019-03-20T07:20:34.810Z,9.65
2019-03-20T07:21:48.022Z,9.58
2019-03-20T07:23:01.252Z,11.30
2019-03-20T07:24:14.475Z,9.60
2019-03-20T07:25:27.725Z,10.28
2019-03-20T07:26:40.959Z,10.10
2019-03-20T07:27:54.183Z,9.70
2019-03-20T07:29:07.417Z,9.63
2019-03-20T07:30:20.641Z,9.25
2019-03-20T07:31:33.885Z,9.98
2019-03-20T07:32:47.118Z,10.40
2019-03-20T07:34:00.354Z,9.78
2019-03-20T07:35:13.585Z,9.93
2019-03-20T07:36:26.832Z,9.53
2019-03-20T07:37:40.051Z,9.78
2019-03-20T07:38:53.280Z,10.03
2019-03-20T07:40:08.651Z,9.93
2019-03-20T07:41:21.873Z,9.23
2019-03-20T07:42:35.123Z,10.78
2019-03-20T07:43:48.358Z,8.65
2019-03-20T07:45:04.334Z,9.65
2019-03-20T07:46:17.566Z,8.88
2019-03-20T07:47:30.793Z,9.50
2019-03-20T07:48:44.017Z,8.93
2019-03-20T07:49:57.233Z,9.50
2019-03-20T07:51:10.470Z,10.08
2019-03-20T07:52:23.782Z,9.88
2019-03-20T07:53:37.010Z,10.00
2019-03-20T07:54:50.237Z,10.05
2019-03-20T07:56:03.470Z,8.93
2019-03-20T07:57:16.705Z,9.03
2019-03-20T07:58:29.946Z,8.83
2019-03-20T07:59:43.169Z,8.80
2019-03-20T08:00:56.394Z,9.40
2019-03-20T08:02:09.614Z,8.40
2019-03-20T08:03:22.847Z,9.78
2019-03-20T08:04:36.066Z,7.95
2019-03-20T08:05:49.290Z,8.85
2019-03-20T08:07:02.582Z,8.40
2019-03-20T08:08:15.809Z,8.93
2019-03-20T08:09:29.066Z,8.45
2019-03-20T08:10:42.345Z,9.10
2019-03-20T08:11:55.570Z,8.55
2019-03-20T08:13:08.808Z,9.15
2019-03-20T08:14:22.282Z,8.80
2019-03-20T08:15:35.505Z,8.68
2019-03-20T08:16:49.366Z,8.35
2019-03-20T08:18:02.607Z,9.35
2019-03-20T08:19:15.838Z,8.60
2019-03-20T08:20:30.058Z,8.10
2019-03-20T08:21:43.295Z,8.15
2019-03-20T08:22:56.523Z,8.00
2019-03-20T08:24:09.769Z,8.23
2019-03-20T08:25:22.993Z,7.97
2019-03-20T08:26:36.218Z,8.53
2019-03-20T08:27:49.446Z,7.45
2019-03-20T08:29:02.673Z,7.20
2019-03-20T08:30:16.860Z,6.85
2019-03-20T08:31:30.093Z,7.25
2019-03-20T08:32:46.564Z,7.33
2019-03-20T08:33:59.783Z,6.85
2019-03-20T08:35:13.645Z,7.08
2019-03-20T08:36:26.893Z,7.75
2019-03-20T08:37:40.354Z,7.03
2019-03-20T08:38:53.582Z,6.05
2019-03-20T08:40:10.855Z,6.15
2019-03-20T08:41:24.084Z,6.50
2019-03-20T08:42:37.327Z,5.67
2019-03-20T08:43:50.566Z,5.67
2019-03-20T08:45:05.655Z,5.30
2019-03-20T08:46:18.888Z,4.10
2019-03-20T08:47:32.113Z,4.10
2019-03-20T08:48:45.362Z,3.37
2019-03-20T08:49:58.574Z,2.85
2019-03-20T08:51:11.793Z,2.02
2019-03-20T08:52:25.018Z,2.30
2019-03-20T08:53:38.238Z,2.30
2019-03-20T08:54:51.478Z,2.20
2019-03-20T08:56:04.711Z,2.70
2019-03-20T08:57:17.946Z,2.75
2019-03-20T08:58:31.169Z,2.33
2019-03-20T08:59:44.397Z,2.87
2019-03-20T09:00:57.631Z,3.25
2019-03-20T09:02:10.853Z,2.55
2019-03-20T09:03:25.368Z,2.92
2019-03-20T09:04:38.827Z,2.60
2019-03-20T09:05:52.045Z,3.12
2019-03-20T09:07:05.277Z,2.70
2019-03-20T09:08:28.561Z,2.85
2019-03-20T09:09:33.432Z,2.17
2019-03-20T09:10:46.658Z,2.42
2019-03-20T09:11:59.904Z,2.75
2019-03-20T09:13:13.127Z,2.85
2019-03-20T09:14:26.357Z,3.40
2019-03-20T09:15:39.581Z,2.55
2019-03-20T09:16:52.810Z,2.62
2019-03-20T09:18:06.045Z,2.95
2019-03-20T09:19:19.263Z,2.33
2019-03-20T09:20:32.492Z,2.92
2019-03-20T09:21:45.786Z,3.08
2019-03-20T09:22:59.583Z,2.45
2019-03-20T09:24:12.821Z,2.22
2019-03-20T09:25:26.416Z,2.33
2019-03-20T09:26:39.665Z,2.33
2019-03-20T09:27:52.934Z,1.85
2019-03-20T09:29:06.162Z,2.33
2019-03-20T09:30:25.801Z,2.02
2019-03-20T09:31:39.029Z,2.00
2019-03-20T09:32:52.255Z,1.87
2019-03-20T09:34:05.608Z,2.10
2019-03-20T09:35:18.989Z,2.52
2019-03-20T09:36:42.487Z,2.77
2019-03-20T09:37:51.853Z,3.00
2019-03-20T09:39:02.189Z,2.65
2019-03-20T09:40:17.614Z,2.40
2019-03-20T09:41:30.838Z,1.70
2019-03-20T09:42:44.075Z,1.92
2019-03-20T09:43:57.294Z,1.80
2019-03-20T09:45:13.317Z,3.10
2019-03-20T09:46:26.540Z,1.80
2019-03-20T09:47:39.818Z,2.37
2019-03-20T09:48:53.048Z,2.75
2019-03-20T09:50:09.274Z,1.87
2019-03-20T09:51:22.497Z,2.35
2019-03-20T09:52:35.736Z,2.58
2019-03-20T09:53:48.965Z,2.27
2019-03-20T09:55:02.185Z,2.42
2019-03-20T09:56:15.410Z,2.40
2019-03-20T09:57:28.626Z,2.00
2019-03-20T09:58:41.855Z,2.58
2019-03-20T09:59:55.668Z,2.45
2019-03-20T10:01:08.885Z,2.27
2019-03-20T10:02:22.110Z,3.17
2019-03-20T10:03:35.333Z,1.98
2019-03-20T10:04:48.551Z,2.60
2019-03-20T10:06:01.795Z,3.05
2019-03-20T10:07:15.025Z,2.70
2019-03-20T10:08:28.257Z,2.85
2019-03-20T10:09:41.506Z,2.67
2019-03-20T10:10:54.736Z,2.35
2019-03-20T10:12:08.980Z,2.08
2019-03-20T10:13:22.202Z,2.33
2019-03-20T10:14:35.426Z,2.10
2019-03-20T10:15:48.654Z,2.45
2019-03-20T10:17:01.877Z,2.67
2019-03-20T10:18:15.101Z,2.50
2019-03-20T10:19:28.322Z,2.50
2019-03-20T10:20:44.417Z,2.60
2019-03-20T10:21:57.641Z,2.35
2019-03-20T10:23:10.869Z,2.22
2019-03-20T10:24:24.093Z,2.87
2019-03-20T10:25:44.637Z,2.02
2019-03-20T10:26:52.266Z,2.58
2019-03-20T10:28:05.486Z,2.20
2019-03-20T10:29:18.718Z,2.30
2019-03-20T10:30:31.955Z,2.90
2019-03-20T10:31:45.177Z,2.47
2019-03-20T10:32:58.449Z,2.55
2019-03-20T10:34:11.716Z,2.83
2019-03-20T10:35:24.951Z,2.72
2019-03-20T10:36:38.171Z,2.55
2019-03-20T10:37:51.406Z,2.25
2019-03-20T10:39:07.017Z,2.58
2019-03-20T10:40:21.202Z,2.92
2019-03-20T10:41:34.427Z,2.30
2019-03-20T10:42:47.654Z,2.83
2019-03-20T10:44:00.873Z,2.50
2019-03-20T10:45:15.196Z,2.27
2019-03-20T10:46:28.424Z,2.55
2019-03-20T10:47:41.737Z,2.70
2019-03-20T10:48:56.302Z,3.12
2019-03-20T10:50:12.453Z,2.58
2019-03-20T10:51:25.687Z,2.20
2019-03-20T10:52:38.934Z,2.50
2019-03-20T10:53:52.149Z,2.08
2019-03-20T10:55:07.109Z,2.20
2019-03-20T10:56:20.334Z,2.75
2019-03-20T10:57:33.576Z,2.65
2019-03-20T10:58:46.801Z,2.40
2019-03-20T11:00:00.026Z,2.60
2019-03-20T11:01:13.245Z,3.12
2019-03-20T11:02:26.493Z,2.30
2019-03-20T11:03:39.714Z,1.95
2019-03-20T11:04:53.882Z,1.90
2019-03-20T11:06:07.105Z,2.80
2019-03-20T11:07:20.329Z,2.45
2019-03-20T11:08:33.562Z,2.25
2019-03-20T11:09:46.793Z,2.50
2019-03-20T11:11:00.029Z,2.45
2019-03-20T11:12:13.258Z,2.37
2019-03-20T11:13:26.491Z,2.15
2019-03-20T11:14:39.793Z,2.33
2019-03-20T11:15:53.022Z,2.50
2019-03-20T11:17:06.256Z,2.70
2019-03-20T11:18:19.503Z,2.35
2019-03-20T11:19:32.711Z,3.30
2019-03-20T11:20:45.945Z,2.83
2019-03-20T11:21:59.153Z,2.58
2019-03-20T11:23:12.404Z,2.77
2019-03-20T11:24:25.858Z,2.80
2019-03-20T11:25:39.091Z,2.75
2019-03-20T11:26:52.318Z,2.47
2019-03-20T11:28:05.561Z,2.40
2019-03-20T11:29:21.570Z,2.72
2019-03-20T11:30:34.002Z,2.35
2019-03-20T11:31:47.230Z,2.80
2019-03-20T11:33:00.976Z,2.67
2019-03-20T11:34:14.237Z,2.20
2019-03-20T11:35:27.462Z,2.08
2019-03-20T11:36:40.702Z,2.40
2019-03-20T11:37:53.931Z,2.50
2019-03-20T11:39:09.094Z,2.50
2019-03-20T11:40:30.084Z,2.50
2019-03-20T11:41:43.318Z,2.72
2019-03-20T11:42:56.789Z,2.40
2019-03-20T11:44:10.014Z,2.85
2019-03-20T11:45:23.635Z,2.95
2019-03-20T11:46:37.066Z,2.55
2019-03-20T11:47:50.293Z,2.72
2019-03-20T11:49:03.523Z,2.52
2019-03-20T11:50:20.010Z,2.55
2019-03-20T11:51:33.237Z,2.42
2019-03-20T11:52:46.494Z,3.12
2019-03-20T11:53:59.737Z,3.05
2019-03-20T11:55:12.971Z,3.05
2019-03-20T11:56:26.194Z,2.83
2019-03-20T11:57:39.427Z,5.85
2019-03-20T11:58:52.686Z,7.75
2019-03-20T12:00:11.900Z,10.65
2019-03-20T12:01:25.142Z,3.15
2019-03-20T12:02:38.370Z,2.58
2019-03-20T12:03:52.075Z,2.62
2019-03-20T12:05:06.859Z,2.60
2019-03-20T12:06:20.076Z,2.65
2019-03-20T12:07:34.930Z,2.95
2019-03-20T12:08:48.151Z,2.42
2019-03-20T12:10:01.385Z,2.50
2019-03-20T12:11:15.938Z,2.95
2019-03-20T12:12:29.234Z,2.95
2019-03-20T12:13:42.473Z,3.60
2019-03-20T12:14:55.702Z,2.80
2019-03-20T12:16:08.938Z,2.60
2019-03-20T12:17:22.173Z,2.17
2019-03-20T12:18:35.405Z,2.67
2019-03-20T12:19:48.639Z,3.08
2019-03-20T12:21:01.879Z,2.80
2019-03-20T12:22:15.101Z,2.50
2019-03-20T12:23:28.334Z,2.35
2019-03-20T12:24:41.602Z,2.52
2019-03-20T12:25:54.822Z,2.98
2019-03-20T12:27:15.087Z,3.00
2019-03-20T12:28:23.022Z,2.70
2019-03-20T12:29:36.245Z,2.92
2019-03-20T12:30:50.194Z,2.77
2019-03-20T12:32:03.422Z,2.67
2019-03-20T12:33:16.662Z,2.42
2019-03-20T12:34:29.895Z,2.65
2019-03-20T12:35:44.754Z,2.40
2019-03-20T12:36:57.982Z,3.17
2019-03-20T12:38:14.954Z,2.60
2019-03-20T12:39:26.179Z,2.47
2019-03-20T12:40:39.416Z,2.33
2019-03-20T12:41:52.642Z,2.77
2019-03-20T12:43:05.940Z,2.20
2019-03-20T12:44:19.943Z,2.42
2019-03-20T12:45:34.368Z,2.50
2019-03-20T12:46:47.594Z,2.98
2019-03-20T12:48:00.817Z,2.83
2019-03-20T12:49:14.041Z,3.00
2019-03-20T12:50:27.291Z,3.90
2019-03-20T12:51:40.523Z,3.17
2019-03-20T12:52:53.747Z,2.62
2019-03-20T12:54:06.975Z,2.95
2019-03-20T12:55:21.075Z,3.15
2019-03-20T12:56:34.351Z,2.60
2019-03-20T12:57:47.579Z,2.83
2019-03-20T12:59:00.814Z,2.67
2019-03-20T13:00:22.457Z,2.70
2019-03-20T13:01:35.688Z,3.00
2019-03-20T13:02:48.991Z,3.17
2019-03-20T13:04:02.216Z,2.72
2019-03-20T13:05:15.892Z,2.87
2019-03-20T13:06:29.128Z,2.98
2019-03-20T13:07:42.540Z,2.55
2019-03-20T13:08:55.768Z,2.75
2019-03-20T13:10:17.218Z,2.85
2019-03-20T13:12:45.888Z,2.85
2019-03-20T13:13:59.130Z,2.50
2019-03-20T13:15:15.047Z,2.42
2019-03-20T13:16:28.292Z,2.55
2019-03-20T13:17:41.542Z,2.77
2019-03-20T13:18:54.775Z,2.87
2019-03-20T13:20:09.944Z,3.05
2019-03-20T13:21:23.175Z,2.90
2019-03-20T13:22:36.397Z,2.80
2019-03-20T13:23:49.631Z,3.25
2019-03-20T13:25:03.418Z,3.00
2019-03-20T13:26:16.653Z,2.92
2019-03-20T13:27:29.878Z,2.83
2019-03-20T13:28:43.125Z,2.83
2019-03-20T13:29:56.353Z,2.98
2019-03-20T13:31:18.582Z,3.08
2019-03-20T13:32:31.823Z,3.08
2019-03-20T13:33:45.046Z,3.05
2019-03-20T13:34:58.286Z,3.42
2019-03-20T13:36:11.515Z,2.80
2019-03-20T13:37:24.748Z,2.75
2019-03-20T13:38:37.977Z,2.37
2019-03-20T13:39:51.209Z,3.35
2019-03-20T13:41:04.453Z,2.87
2019-03-20T13:42:17.670Z,3.15
2019-03-20T13:43:30.918Z,2.65
2019-03-20T13:44:44.142Z,2.80
2019-03-20T13:45:57.384Z,2.95
2019-03-20T13:47:10.609Z,3.62
2019-03-20T13:48:23.836Z,2.52
2019-03-20T13:49:37.074Z,2.50
2019-03-20T13:50:50.320Z,2.75
2019-03-20T13:52:03.550Z,3.37
2019-03-20T13:53:16.771Z,2.85
2019-03-20T13:54:30.014Z,3.20
2019-03-20T13:55:43.251Z,3.22
2019-03-20T13:56:56.491Z,2.90
2019-03-20T13:58:09.711Z,3.22
2019-03-20T13:59:22.955Z,2.87
2019-03-20T14:00:36.198Z,3.42
2019-03-20T14:01:49.423Z,2.80
2019-03-20T14:03:02.651Z,3.08
2019-03-20T14:04:15.898Z,2.92
2019-03-20T14:05:29.131Z,3.42
2019-03-20T14:06:42.382Z,2.72
2019-03-20T14:07:55.609Z,3.12
2019-03-20T14:09:08.837Z,3.02
2019-03-20T14:10:25.827Z,2.85
2019-03-20T14:11:39.145Z,3.08
2019-03-20T14:12:52.381Z,2.45
2019-03-20T14:14:05.619Z,2.70
2019-03-20T14:15:19.074Z,3.00
2019-03-20T14:16:32.560Z,3.25
2019-03-20T14:17:45.955Z,3.08
2019-03-20T14:18:59.222Z,2.62
2019-03-20T14:20:28.563Z,3.12
2019-03-20T14:21:41.800Z,3.25
2019-03-20T14:22:55.040Z,3.40
2019-03-20T14:24:08.535Z,2.85
2019-03-20T14:25:22.098Z,3.20
2019-03-20T14:26:35.322Z,2.98
2019-03-20T14:27:48.615Z,2.87
2019-03-20T14:29:01.854Z,2.80
2019-03-20T14:30:19.918Z,3.00
2019-03-20T14:31:33.153Z,3.00
2019-03-20T14:32:46.392Z,3.10
2019-03-20T14:33:59.611Z,3.02
2019-03-20T14:35:12.889Z,2.62
2019-03-20T14:36:26.169Z,3.50
2019-03-20T14:37:39.409Z,3.50
2019-03-20T14:38:52.630Z,2.80
2019-03-20T14:40:09.104Z,2.90
2019-03-20T14:41:22.336Z,3.08
2019-03-20T14:42:35.566Z,2.98
2019-03-20T14:43:48.799Z,3.47
2019-03-20T14:45:02.131Z,3.72
2019-03-20T14:46:15.358Z,2.90
2019-03-20T14:47:28.581Z,3.02
2019-03-20T14:48:41.854Z,3.05
2019-03-20T14:49:55.076Z,2.83
2019-03-20T14:51:08.310Z,3.40
2019-03-20T14:52:23.178Z,2.70
2019-03-20T14:53:36.423Z,3.22
2019-03-20T14:54:49.641Z,3.15
2019-03-20T14:56:02.873Z,3.77
2019-03-20T14:57:16.095Z,3.15
2019-03-20T14:58:29.321Z,3.22
2019-03-20T14:59:42.572Z,2.95
2019-03-20T15:00:55.802Z,3.05
2019-03-20T15:02:09.101Z,3.02
2019-03-20T15:03:22.344Z,3.67
2019-03-20T15:04:35.566Z,3.08
2019-03-20T15:05:48.813Z,3.25
2019-03-20T15:07:02.117Z,3.47
2019-03-20T15:08:15.346Z,3.10
2019-03-20T15:09:28.587Z,3.17
2019-03-20T15:10:45.958Z,3.10
2019-03-20T15:11:56.792Z,2.92
2019-03-20T15:13:10.090Z,3.12
2019-03-20T15:14:24.657Z,3.30
2019-03-20T15:15:46.836Z,3.20
2019-03-20T15:17:00.058Z,3.40
2019-03-20T15:18:13.311Z,3.33
2019-03-20T15:19:26.541Z,3.10
2019-03-20T15:20:39.776Z,2.87
2019-03-20T15:21:53.015Z,3.27
2019-03-20T15:23:06.253Z,3.25
2019-03-20T15:24:19.514Z,4.28
2019-03-20T15:25:32.742Z,3.20
2019-03-20T15:26:45.966Z,3.45
2019-03-20T15:27:59.194Z,3.17
2019-03-20T15:29:12.413Z,3.40
2019-03-20T15:30:29.689Z,3.37
2019-03-20T15:31:43.131Z,3.45
2019-03-20T15:32:56.358Z,3.33
2019-03-20T15:34:09.598Z,3.35
2019-03-20T15:35:22.892Z,3.40
2019-03-20T15:36:36.143Z,3.87
2019-03-20T15:37:49.370Z,3.12
2019-03-20T15:39:02.600Z,3.98
2019-03-20T15:40:26.411Z,3.40
2019-03-20T15:41:39.633Z,3.20
2019-03-20T15:42:52.878Z,3.42
2019-03-20T15:44:06.097Z,3.52
2019-03-20T15:45:19.475Z,3.30
2019-03-20T15:46:32.697Z,3.47
2019-03-20T15:47:46.005Z,3.52
2019-03-20T15:48:59.248Z,3.80
2019-03-20T15:50:17.013Z,3.33
2019-03-20T15:51:30.234Z,3.05
2019-03-20T15:52:43.461Z,3.58
2019-03-20T15:53:56.690Z,3.55
2019-03-20T15:55:18.922Z,3.20
2019-03-20T15:56:32.161Z,3.65
2019-03-20T15:57:45.388Z,3.45
2019-03-20T15:58:58.613Z,3.37
2019-03-20T16:00:15.102Z,3.37
2019-03-20T16:01:28.329Z,3.85
2019-03-20T16:02:41.566Z,3.55
2019-03-20T16:03:54.791Z,3.58
2019-03-20T16:05:08.268Z,3.20
2019-03-20T16:06:21.510Z,3.33
2019-03-20T16:07:34.745Z,3.67
2019-03-20T16:08:47.979Z,3.22
2019-03-20T16:10:01.198Z,3.60
2019-03-20T16:11:14.449Z,3.45
2019-03-20T16:12:27.679Z,3.20
2019-03-20T16:13:40.909Z,3.45
2019-03-20T16:14:54.138Z,3.22
2019-03-20T16:16:07.386Z,3.42
2019-03-20T16:17:20.633Z,2.95
2019-03-20T16:18:33.858Z,3.08
2019-03-20T16:19:47.081Z,3.15
2019-03-20T16:21:00.322Z,3.15
2019-03-20T16:22:13.563Z,3.62
2019-03-20T16:23:26.812Z,3.75
2019-03-20T16:24:40.031Z,3.60